Time;durP1;ratioP1;P1;durP2;ratioP2;P2;SDS_P1;SDS_P2;PMS_P1;PMS_P2;Temp;Humidity;BMP_temperature;BMP_pressure;BME280_temperature;BME280_humidity;BME280_pressure;Samples;Min_cycle;Max_cycle;Signal;HPM_P1;HPM_P2
2022/07/22 00:01:16;;;;;;;8.75;2.25;;;17.10;99.90;;;;;;5103659;28;20044;-65
2022/07/22 00:03:42;;;;;;;11.77;2.90;;;17.10;99.90;;;;;;5106475;28;20043;-65
2022/07/22 00:06:07;;;;;;;11.57;2.60;;;17.20;99.90;;;;;;5097423;28;20324;-65
2022/07/22 00:08:33;;;;;;;7.63;2.47;;;17.20;99.90;;;;;;5100873;28;20054;-65
2022/07/22 00:10:58;;;;;;;7.78;2.30;;;17.20;99.90;;;;;;5109840;28;20111;-65
2022/07/22 00:13:24;;;;;;;8.15;2.33;;;17.10;99.90;;;;;;5109927;28;20135;-65
2022/07/22 00:15:50;;;;;;;9.77;2.80;;;17.10;99.90;;;;;;5108649;28;20051;-65
2022/07/22 00:18:15;;;;;;;8.20;2.88;;;17.10;99.90;;;;;;5109550;28;20047;-64
2022/07/22 00:20:42;;;;;;;10.98;2.63;;;17.10;99.90;;;;;;5107279;28;20431;-65
2022/07/22 00:23:08;;;;;;;7.05;2.42;;;17.10;99.90;;;;;;5110823;28;20486;-64
2022/07/22 00:25:33;;;;;;;9.82;2.80;;;17.10;99.90;;;;;;5109780;28;20046;-65
2022/07/22 00:27:59;;;;;;;10.27;3.33;;;17.10;99.90;;;;;;5108987;28;20032;-65
2022/07/22 00:30:24;;;;;;;8.35;2.72;;;17.20;99.90;;;;;;5109510;28;20038;-65
2022/07/22 00:32:50;;;;;;;9.68;2.72;;;17.20;99.90;;;;;;5110249;28;20495;-65
2022/07/22 00:35:16;;;;;;;9.02;3.00;;;17.20;99.90;;;;;;5100688;28;20046;-65
2022/07/22 00:37:41;;;;;;;8.73;2.58;;;17.20;99.90;;;;;;5105772;28;20135;-65
2022/07/22 00:40:07;;;;;;;9.45;2.55;;;17.20;99.90;;;;;;5106549;28;21009;-64
2022/07/22 00:42:34;;;;;;;10.80;2.47;;;17.10;99.90;;;;;;5109577;28;20041;-65
2022/07/22 00:44:59;;;;;;;10.48;3.05;;;17.10;99.90;;;;;;5108692;28;20050;-64
2022/07/22 00:47:25;;;;;;;10.80;3.38;;;17.20;99.90;;;;;;5109685;28;20039;-65
2022/07/22 00:49:50;;;;;;;9.50;2.70;;;17.10;99.90;;;;;;5109294;28;20036;-65
2022/07/22 00:52:19;;;;;;;7.00;2.60;;;17.10;99.90;;;;;;5108884;28;20051;-64
2022/07/22 00:54:44;;;;;;;8.70;2.40;;;17.10;99.90;;;;;;5109708;28;20751;-64
2022/07/22 00:57:10;;;;;;;11.40;2.83;;;17.10;99.90;;;;;;5107954;28;20047;-64
2022/07/22 00:59:36;;;;;;;8.05;2.47;;;17.20;99.90;;;;;;5107730;28;20036;-65
2022/07/22 01:02:02;;;;;;;7.65;2.42;;;17.10;99.90;;;;;;5103117;28;20047;-64
2022/07/22 01:04:27;;;;;;;9.85;2.40;;;17.20;99.90;;;;;;5099960;28;20039;-64
2022/07/22 01:06:53;;;;;;;11.65;2.75;;;17.20;99.90;;;;;;5108539;28;20149;-64
2022/07/22 01:09:18;;;;;;;7.35;2.40;;;17.20;99.90;;;;;;5110673;28;20040;-64
2022/07/22 01:11:44;;;;;;;6.50;2.42;;;17.20;99.90;;;;;;5109107;28;20046;-65
2022/07/22 01:14:09;;;;;;;7.43;2.55;;;17.10;99.90;;;;;;5109509;28;20055;-65
2022/07/22 01:16:36;;;;;;;10.07;2.38;;;17.20;99.90;;;;;;5106967;28;20111;-65
2022/07/22 01:19:02;;;;;;;9.38;2.45;;;17.20;99.90;;;;;;5108087;28;20051;-65
2022/07/22 01:21:27;;;;;;;8.95;2.50;;;17.20;99.90;;;;;;5109436;28;20043;-65
2022/07/22 01:23:53;;;;;;;9.57;2.80;;;17.20;99.90;;;;;;5109115;28;20346;-65
2022/07/22 01:26:18;;;;;;;8.70;2.60;;;17.20;99.90;;;;;;5107317;28;20058;-65
2022/07/22 01:28:44;;;;;;;8.05;2.20;;;17.20;99.90;;;;;;5108790;28;20059;-65
2022/07/22 01:31:10;;;;;;;9.80;2.47;;;17.20;99.90;;;;;;5107623;28;20036;-65
2022/07/22 01:33:36;;;;;;;7.07;2.65;;;17.20;99.90;;;;;;5108901;28;20468;-65
2022/07/22 01:36:05;;;;;;;9.50;2.28;;;17.20;99.90;;;;;;5101545;28;20593;-65
2022/07/22 01:38:30;;;;;;;9.70;3.05;;;17.20;99.90;;;;;;5102271;28;20116;-65
2022/07/22 01:40:56;;;;;;;6.75;2.30;;;17.20;99.90;;;;;;5099723;28;20055;-65
2022/07/22 01:43:22;;;;;;;11.40;2.88;;;17.10;99.90;;;;;;5108520;28;20501;-65
2022/07/22 01:45:51;;;;;;;8.98;2.30;;;17.20;99.90;;;;;;5107545;28;20184;-65
2022/07/22 01:48:18;;;;;;;10.00;2.58;;;17.10;99.90;;;;;;5107849;28;20035;-65
2022/07/22 01:50:44;;;;;;;8.40;1.98;;;17.10;99.90;;;;;;5108578;28;20450;-65
2022/07/22 01:53:10;;;;;;;9.90;2.50;;;17.10;99.90;;;;;;5107715;28;20407;-65
2022/07/22 01:55:36;;;;;;;9.52;2.55;;;17.10;99.90;;;;;;5102496;28;20059;-65
2022/07/22 01:58:03;;;;;;;8.80;2.60;;;17.10;99.90;;;;;;5109073;28;20120;-65
2022/07/22 02:00:29;;;;;;;12.48;2.75;;;17.10;99.90;;;;;;5107979;28;20092;-65
2022/07/22 02:02:55;;;;;;;10.35;2.50;;;17.10;99.90;;;;;;5095243;28;20052;-65
2022/07/22 02:05:20;;;;;;;11.60;2.67;;;17.10;99.90;;;;;;5103854;28;20047;-65
2022/07/22 02:07:46;;;;;;;7.68;2.45;;;17.10;99.90;;;;;;5112035;28;20050;-65
2022/07/22 02:10:12;;;;;;;8.82;2.30;;;17.10;99.90;;;;;;5112783;28;20114;-65
2022/07/22 02:12:37;;;;;;;8.23;2.33;;;17.10;99.90;;;;;;5112775;28;20038;-65
2022/07/22 02:15:04;;;;;;;10.70;2.63;;;17.10;99.90;;;;;;5110700;28;20039;-65
2022/07/22 02:17:29;;;;;;;9.02;2.88;;;17.10;99.90;;;;;;5111685;28;20137;-65
2022/07/22 02:19:55;;;;;;;6.93;2.42;;;17.10;99.90;;;;;;5112180;28;20043;-65
2022/07/22 02:22:20;;;;;;;6.88;2.20;;;17.10;99.90;;;;;;5110172;28;20071;-65
2022/07/22 02:24:46;;;;;;;9.82;2.40;;;17.10;99.90;;;;;;5113271;28;20043;-65
2022/07/22 02:27:12;;;;;;;8.75;2.53;;;17.10;99.90;;;;;;5110468;28;20039;-65
2022/07/22 02:29:37;;;;;;;9.75;2.78;;;17.10;99.90;;;;;;5111148;28;20205;-65
2022/07/22 02:32:03;;;;;;;11.40;2.28;;;17.10;99.90;;;;;;5108720;28;20081;-65
2022/07/22 02:34:29;;;;;;;7.72;2.40;;;17.10;99.90;;;;;;5110025;28;20043;-65
2022/07/22 02:36:54;;;;;;;9.98;1.90;;;17.10;99.90;;;;;;5111511;28;20040;-65
2022/07/22 02:39:20;;;;;;;7.57;2.30;;;17.10;99.90;;;;;;5105978;28;20043;-65
2022/07/22 02:41:46;;;;;;;8.05;2.47;;;17.10;99.90;;;;;;5099206;28;20042;-65
2022/07/22 02:44:11;;;;;;;10.07;2.63;;;17.10;99.90;;;;;;5112506;28;20362;-65
2022/07/22 02:46:37;;;;;;;9.02;2.33;;;17.10;99.90;;;;;;5103495;28;20116;-65
2022/07/22 02:49:04;;;;;;;8.13;2.13;;;17.10;99.90;;;;;;5102558;28;20173;-65
2022/07/22 02:51:30;;;;;;;9.93;2.72;;;17.10;99.90;;;;;;5103006;28;20544;-65
2022/07/22 02:53:55;;;;;;;10.50;2.17;;;17.10;99.90;;;;;;5112119;28;20056;-65
2022/07/22 02:56:21;;;;;;;10.27;2.00;;;17.10;99.90;;;;;;5110692;28;20062;-65
2022/07/22 02:58:46;;;;;;;8.02;2.20;;;17.10;99.90;;;;;;5111434;28;20498;-65
2022/07/22 03:01:12;;;;;;;8.25;2.53;;;17.10;99.90;;;;;;5105828;28;20040;-65
2022/07/22 03:03:38;;;;;;;7.35;2.15;;;17.10;99.90;;;;;;5099176;28;20043;-65
2022/07/22 03:06:04;;;;;;;6.60;2.05;;;17.10;99.90;;;;;;5110916;28;20926;-65
2022/07/22 03:08:30;;;;;;;8.80;2.40;;;17.10;99.90;;;;;;5112972;28;20036;-65
2022/07/22 03:10:56;;;;;;;6.90;2.20;;;17.10;99.90;;;;;;5108442;28;20570;-65
2022/07/22 03:13:22;;;;;;;9.65;1.95;;;17.10;99.90;;;;;;5108899;28;20127;-65
2022/07/22 03:15:47;;;;;;;7.22;2.10;;;17.10;99.90;;;;;;5109986;28;20375;-65
2022/07/22 03:18:14;;;;;;;6.18;1.85;;;17.10;99.90;;;;;;5110434;28;20098;-65
2022/07/22 03:20:40;;;;;;;6.90;1.95;;;17.00;99.90;;;;;;5102059;28;20047;-65
2022/07/22 03:23:06;;;;;;;8.57;2.20;;;17.00;99.90;;;;;;5110982;28;20082;-64
2022/07/22 03:25:32;;;;;;;10.02;2.25;;;17.00;99.90;;;;;;5109544;28;20059;-65
2022/07/22 03:27:58;;;;;;;14.77;2.63;;;17.10;99.90;;;;;;5110150;28;20044;-64
2022/07/22 03:30:23;;;;;;;6.80;1.98;;;17.00;99.90;;;;;;5111168;28;20039;-65
2022/07/22 03:32:49;;;;;;;5.68;1.98;;;17.00;99.90;;;;;;5110572;28;20093;-65
2022/07/22 03:35:16;;;;;;;7.80;2.30;;;17.00;99.90;;;;;;5110348;28;20039;-65
2022/07/22 03:37:42;;;;;;;8.25;2.22;;;17.00;99.90;;;;;;5110049;28;20043;-65
2022/07/22 03:40:08;;;;;;;8.43;2.22;;;17.10;99.90;;;;;;5111384;28;20527;-65
2022/07/22 03:42:34;;;;;;;8.80;2.15;;;17.00;99.90;;;;;;5108929;28;20493;-65
2022/07/22 03:44:59;;;;;;;12.07;2.15;;;17.00;99.90;;;;;;5103175;28;20070;-65
2022/07/22 03:47:25;;;;;;;11.82;2.58;;;17.00;99.90;;;;;;5097152;28;20064;-65
2022/07/22 03:49:51;;;;;;;8.18;2.35;;;17.00;99.90;;;;;;5125167;27;20055;-65
2022/07/22 03:52:16;;;;;;;9.32;2.65;;;17.00;99.90;;;;;;5108676;28;20036;-65
2022/07/22 03:54:43;;;;;;;6.88;2.15;;;17.00;99.90;;;;;;5110852;28;20431;-65
2022/07/22 03:57:09;;;;;;;7.60;2.10;;;17.00;99.90;;;;;;5106114;28;20160;-65
2022/07/22 03:59:35;;;;;;;6.35;1.83;;;17.00;99.90;;;;;;5109428;28;20118;-65
2022/07/22 04:02:01;;;;;;;9.68;2.20;;;16.90;99.90;;;;;;5095507;28;20043;-65
2022/07/22 04:04:26;;;;;;;7.75;2.90;;;16.90;99.90;;;;;;5105200;28;20078;-65
2022/07/22 04:06:52;;;;;;;9.35;2.50;;;16.90;99.90;;;;;;5106145;28;20031;-65
2022/07/22 04:09:17;;;;;;;10.20;2.53;;;16.90;99.90;;;;;;5110626;28;20051;-65
2022/07/22 04:11:43;;;;;;;8.13;2.50;;;17.00;99.90;;;;;;5105807;28;20059;-65
2022/07/22 04:14:09;;;;;;;7.07;2.13;;;17.00;99.90;;;;;;5110302;28;20393;-65
2022/07/22 04:16:35;;;;;;;6.68;2.38;;;17.00;99.90;;;;;;5107633;28;20039;-65
2022/07/22 04:19:01;;;;;;;8.75;2.22;;;17.00;99.90;;;;;;5098492;28;20043;-65
2022/07/22 04:21:27;;;;;;;8.50;2.47;;;17.00;99.90;;;;;;5108746;28;20035;-65
2022/07/22 04:23:53;;;;;;;10.25;2.67;;;17.10;99.90;;;;;;5109584;28;20062;-65
2022/07/22 04:26:19;;;;;;;7.65;2.35;;;17.00;99.90;;;;;;5109433;28;20082;-65
2022/07/22 04:28:45;;;;;;;11.60;2.70;;;17.00;99.90;;;;;;5108238;28;20071;-65
2022/07/22 04:31:11;;;;;;;7.50;2.35;;;17.00;99.90;;;;;;5099738;28;20044;-65
2022/07/22 04:33:37;;;;;;;7.10;2.42;;;17.00;99.90;;;;;;5096118;28;20059;-65
2022/07/22 04:36:03;;;;;;;7.70;2.75;;;17.10;99.90;;;;;;5109501;28;20036;-65
2022/07/22 04:38:28;;;;;;;6.60;2.30;;;17.10;99.90;;;;;;5097580;28;20055;-65
2022/07/22 04:40:54;;;;;;;6.63;2.42;;;17.10;99.90;;;;;;5100373;28;20545;-65
2022/07/22 04:43:20;;;;;;;10.35;2.53;;;17.10;99.90;;;;;;5106648;28;20058;-65
2022/07/22 04:45:45;;;;;;;8.38;2.25;;;17.00;99.90;;;;;;5105679;28;20112;-65
2022/07/22 04:48:11;;;;;;;6.55;2.70;;;17.10;99.90;;;;;;5106015;28;20819;-64
2022/07/22 04:50:37;;;;;;;7.53;2.38;;;17.10;99.90;;;;;;5105383;28;20069;-66
2022/07/22 04:53:03;;;;;;;8.48;2.30;;;17.20;99.90;;;;;;5106858;28;20380;-65
2022/07/22 04:55:29;;;;;;;7.13;2.47;;;17.20;99.90;;;;;;5106568;28;20036;-65
2022/07/22 04:57:54;;;;;;;6.38;2.10;;;17.20;99.90;;;;;;5106711;28;20038;-66
2022/07/22 05:00:20;;;;;;;10.95;2.50;;;17.30;99.90;;;;;;5109876;28;20040;-66
2022/07/22 05:02:46;;;;;;;9.13;2.30;;;17.20;99.90;;;;;;5108167;28;20155;-65
2022/07/22 05:05:11;;;;;;;8.13;2.38;;;17.30;99.90;;;;;;5107590;28;20043;-65
2022/07/22 05:07:37;;;;;;;8.60;2.50;;;17.30;99.90;;;;;;5103716;28;20071;-65
2022/07/22 05:10:03;;;;;;;8.85;2.55;;;17.20;99.90;;;;;;5109241;28;20035;-65
2022/07/22 05:12:29;;;;;;;6.85;2.40;;;17.30;99.90;;;;;;5108316;28;20047;-65
2022/07/22 05:14:54;;;;;;;9.38;2.35;;;17.20;99.90;;;;;;5102611;28;20202;-65
2022/07/22 05:17:20;;;;;;;6.15;2.60;;;17.30;99.90;;;;;;5106698;28;20040;-65
2022/07/22 05:19:45;;;;;;;6.15;2.08;;;17.30;99.90;;;;;;5103451;28;20175;-65
2022/07/22 05:22:11;;;;;;;7.40;2.40;;;17.30;99.90;;;;;;5114146;27;20537;-65
2022/07/22 05:24:36;;;;;;;6.38;2.35;;;17.30;99.90;;;;;;5108780;28;20122;-65
2022/07/22 05:27:02;;;;;;;8.20;2.47;;;17.40;99.90;;;;;;5103765;28;20088;-65
2022/07/22 05:29:28;;;;;;;6.13;2.20;;;17.40;99.90;;;;;;5109112;28;20071;-65
2022/07/22 05:31:54;;;;;;;6.97;2.10;;;17.50;99.90;;;;;;5107032;28;20043;-65
2022/07/22 05:34:19;;;;;;;7.47;2.45;;;17.50;99.90;;;;;;5109400;28;20047;-65
2022/07/22 05:36:45;;;;;;;7.15;2.22;;;17.50;99.90;;;;;;5114291;28;20688;-65
2022/07/22 05:39:11;;;;;;;5.15;2.08;;;17.50;99.90;;;;;;5114098;28;20058;-66
2022/07/22 05:41:37;;;;;;;8.38;2.15;;;17.60;99.90;;;;;;5115996;28;20062;-66
2022/07/22 05:44:03;;;;;;;5.60;2.15;;;17.60;99.90;;;;;;5116937;28;20051;-66
2022/07/22 05:46:29;;;;;;;5.97;2.00;;;17.60;99.90;;;;;;5108205;27;20035;-66
2022/07/22 05:48:54;;;;;;;9.20;2.40;;;17.70;99.90;;;;;;5113674;27;20059;-66
2022/07/22 05:51:20;;;;;;;7.47;2.25;;;17.60;99.90;;;;;;5113743;28;20165;-66
2022/07/22 05:53:46;;;;;;;6.35;2.10;;;17.70;99.90;;;;;;5117051;28;20043;-66
2022/07/22 05:56:13;;;;;;;6.43;1.98;;;17.70;99.90;;;;;;5108786;28;20127;-66
2022/07/22 05:58:39;;;;;;;7.03;2.33;;;17.80;99.90;;;;;;5115187;28;20069;-66
2022/07/22 06:01:05;;;;;;;5.82;1.90;;;17.80;99.90;;;;;;5116083;28;20043;-66
2022/07/22 06:03:30;;;;;;;7.97;1.92;;;17.90;99.90;;;;;;5114184;28;20388;-65
2022/07/22 06:05:56;;;;;;;6.50;1.85;;;17.90;99.90;;;;;;5115321;28;20099;-65
2022/07/22 06:08:21;;;;;;;6.55;1.80;;;18.00;99.90;;;;;;5115213;28;20442;-65
2022/07/22 06:10:47;;;;;;;5.63;2.30;;;18.00;99.90;;;;;;5116314;28;20379;-66
2022/07/22 06:13:13;;;;;;;6.35;2.20;;;18.00;99.90;;;;;;5115068;27;20496;-66
2022/07/22 06:15:39;;;;;;;6.65;2.08;;;18.10;99.90;;;;;;5114449;28;20458;-65
2022/07/22 06:18:05;;;;;;;8.85;2.15;;;18.10;99.90;;;;;;5105283;28;20084;-66
2022/07/22 06:20:30;;;;;;;5.57;1.80;;;18.10;99.90;;;;;;5114938;28;20112;-66
2022/07/22 06:22:56;;;;;;;6.07;1.90;;;18.10;99.90;;;;;;5115734;27;20131;-65
2022/07/22 06:25:21;;;;;;;6.60;1.90;;;18.10;99.90;;;;;;5115270;27;20062;-66
2022/07/22 06:27:47;;;;;;;5.85;2.20;;;18.20;99.90;;;;;;5114486;28;20043;-65
2022/07/22 06:30:13;;;;;;;5.72;2.05;;;18.20;99.90;;;;;;5116047;28;20062;-65
2022/07/22 06:32:38;;;;;;;5.20;2.10;;;18.20;99.90;;;;;;5114527;28;20036;-65
2022/07/22 06:35:04;;;;;;;7.03;2.22;;;18.20;99.90;;;;;;5115198;28;20042;-66
2022/07/22 06:37:30;;;;;;;4.68;1.92;;;18.20;99.90;;;;;;5114308;28;20039;-65
2022/07/22 06:39:56;;;;;;;3.72;1.60;;;18.20;99.90;;;;;;5113234;28;20036;-66
2022/07/22 06:42:22;;;;;;;5.82;1.92;;;18.30;99.90;;;;;;5115529;27;20046;-66
2022/07/22 06:44:48;;;;;;;5.47;2.38;;;18.30;99.90;;;;;;5096308;28;20055;-66
2022/07/22 06:47:13;;;;;;;7.20;2.03;;;18.40;99.90;;;;;;5112472;28;20036;-66
2022/07/22 06:49:39;;;;;;;7.03;2.13;;;18.40;99.90;;;;;;5112219;28;20397;-66
2022/07/22 06:52:05;;;;;;;5.90;2.15;;;18.40;99.90;;;;;;5110391;28;20047;-65
2022/07/22 06:54:30;;;;;;;7.20;1.90;;;18.40;99.90;;;;;;5112757;28;20527;-66
2022/07/22 06:56:57;;;;;;;6.60;2.15;;;18.50;99.90;;;;;;5111896;28;20104;-66
2022/07/22 06:59:23;;;;;;;5.88;2.10;;;18.50;99.90;;;;;;5111328;28;20367;-65
2022/07/22 07:01:49;;;;;;;4.10;1.55;;;18.50;99.90;;;;;;5106714;28;20055;-65
2022/07/22 07:04:15;;;;;;;6.88;1.80;;;18.60;99.90;;;;;;5105757;28;20043;-65
2022/07/22 07:06:41;;;;;;;6.00;1.60;;;18.60;99.90;;;;;;5108467;28;20056;-66
2022/07/22 07:09:07;;;;;;;4.97;1.80;;;18.60;99.90;;;;;;5105350;28;20047;-65
2022/07/22 07:11:33;;;;;;;4.47;1.60;;;18.70;99.90;;;;;;5108020;28;20043;-66
2022/07/22 07:13:59;;;;;;;8.38;1.85;;;18.70;99.90;;;;;;5104930;28;20055;-66
2022/07/22 07:16:24;;;;;;;6.72;1.52;;;18.80;99.90;;;;;;5107248;27;20084;-65
2022/07/22 07:18:50;;;;;;;4.95;1.70;;;18.90;99.90;;;;;;5107186;28;20047;-65
2022/07/22 07:21:15;;;;;;;5.88;1.60;;;18.90;99.90;;;;;;5111990;28;20067;-65
2022/07/22 07:23:41;;;;;;;4.50;1.25;;;19.00;99.90;;;;;;5110421;28;20158;-65
2022/07/22 07:26:07;;;;;;;7.63;1.77;;;19.00;99.90;;;;;;5104790;28;20204;-65
2022/07/22 07:28:32;;;;;;;7.20;1.60;;;18.90;99.90;;;;;;5108486;28;20039;-66
2022/07/22 07:30:58;;;;;;;5.10;1.40;;;18.90;99.90;;;;;;5110514;28;20342;-65
2022/07/22 07:33:23;;;;;;;4.00;1.70;;;19.00;99.90;;;;;;5105185;28;20122;-66
2022/07/22 07:35:49;;;;;;;5.90;1.60;;;19.00;99.90;;;;;;5110041;28;20036;-66
2022/07/22 07:38:15;;;;;;;4.50;1.52;;;19.00;99.90;;;;;;5110764;28;20074;-66
2022/07/22 07:40:41;;;;;;;3.90;1.33;;;19.20;99.90;;;;;;5110452;28;20533;-66
2022/07/22 07:43:06;;;;;;;4.97;1.40;;;19.20;99.90;;;;;;5110706;28;20127;-66
2022/07/22 07:45:33;;;;;;;4.82;1.40;;;19.20;99.90;;;;;;5110533;28;20074;-66
2022/07/22 07:47:59;;;;;;;4.93;1.40;;;19.20;99.90;;;;;;5110537;27;20048;-66
2022/07/22 07:50:25;;;;;;;4.55;1.27;;;19.30;99.90;;;;;;5111767;28;20043;-66
2022/07/22 07:52:50;;;;;;;6.40;1.58;;;19.50;99.90;;;;;;5105234;28;20088;-66
2022/07/22 07:55:18;;;;;;;5.22;1.27;;;19.50;99.90;;;;;;5111971;28;20031;-66
2022/07/22 07:57:46;;;;;;;6.22;1.80;;;19.70;99.90;;;;;;5110041;28;20105;-66
2022/07/22 08:00:12;;;;;;;4.20;1.60;;;19.80;99.90;;;;;;5109263;28;20039;-66
2022/07/22 08:02:38;;;;;;;5.13;1.40;;;20.00;99.90;;;;;;5110595;28;20050;-66
2022/07/22 08:05:05;;;;;;;4.63;1.10;;;20.10;99.90;;;;;;5110818;28;20035;-66
2022/07/22 08:07:30;;;;;;;3.83;1.13;;;20.30;99.90;;;;;;5108678;28;20059;-66
2022/07/22 08:09:56;;;;;;;4.65;1.08;;;20.40;99.90;;;;;;5110063;28;20032;-66
2022/07/22 08:12:22;;;;;;;4.43;1.40;;;20.50;99.90;;;;;;5109770;28;20070;-66
2022/07/22 08:14:48;;;;;;;5.15;1.40;;;20.60;99.90;;;;;;5109702;28;20828;-66
2022/07/22 08:17:13;;;;;;;6.97;1.35;;;20.70;99.90;;;;;;5109860;27;20401;-66
2022/07/22 08:19:39;;;;;;;5.72;1.20;;;20.70;99.90;;;;;;5107038;28;20045;-66
2022/07/22 08:22:05;;;;;;;4.43;1.40;;;20.80;99.90;;;;;;5109957;28;20040;-66
2022/07/22 08:24:30;;;;;;;4.22;1.20;;;20.80;99.90;;;;;;5111177;28;20391;-66
2022/07/22 08:26:56;;;;;;;4.18;1.20;;;20.90;99.90;;;;;;5109551;28;20035;-66
2022/07/22 08:29:21;;;;;;;5.47;1.00;;;21.00;99.90;;;;;;5111276;28;20446;-66
2022/07/22 08:31:47;;;;;;;5.38;1.25;;;21.10;99.40;;;;;;5110208;28;20394;-66
2022/07/22 08:34:13;;;;;;;3.55;1.10;;;21.00;98.70;;;;;;5100772;28;20043;-66
2022/07/22 08:36:38;;;;;;;4.13;1.38;;;21.10;98.90;;;;;;5109903;28;20462;-66
2022/07/22 08:39:04;;;;;;;5.40;1.45;;;21.10;99.20;;;;;;5109075;28;20039;-66
2022/07/22 08:41:35;;;;;;;6.10;1.48;;;21.10;99.40;;;;;;5109917;28;20050;-66
2022/07/22 08:44:02;;;;;;;4.40;1.40;;;21.00;99.10;;;;;;5108778;28;20039;-66
2022/07/22 08:46:27;;;;;;;4.55;1.27;;;20.90;99.40;;;;;;5105974;28;20036;-68
2022/07/22 08:48:54;;;;;;;5.18;1.30;;;21.00;99.70;;;;;;5107938;27;20187;-68
2022/07/22 08:51:21;;;;;;;3.83;1.42;;;21.00;99.80;;;;;;5106896;28;20598;-68
2022/07/22 08:53:46;;;;;;;3.88;1.10;;;20.70;99.70;;;;;;5110234;28;20111;-68
2022/07/22 08:56:13;;;;;;;4.78;1.20;;;20.60;99.60;;;;;;5108488;28;20127;-68
2022/07/22 08:58:40;;;;;;;4.63;1.42;;;20.60;99.60;;;;;;5109323;28;20051;-68
2022/07/22 09:01:11;;;;;;;6.20;1.30;;;20.60;99.70;;;;;;5105070;28;20120;-67
2022/07/22 09:03:44;;;;;;;4.32;1.20;;;20.50;99.60;;;;;;5107443;28;20172;-68
2022/07/22 09:06:11;;;;;;;6.20;0.95;;;20.50;99.90;;;;;;5105628;28;20105;-67
2022/07/22 09:08:55;;;;;;;5.40;1.30;;;20.40;99.90;;;;;;5107587;28;20047;-68
2022/07/22 09:11:23;;;;;;;5.68;1.20;;;20.40;99.90;;;;;;5107333;28;20080;-67
2022/07/22 09:13:49;;;;;;;4.55;1.25;;;20.50;99.90;;;;;;5108532;28;20522;-68
2022/07/22 09:16:15;;;;;;;4.60;1.10;;;20.50;99.90;;;;;;5108799;28;20036;-68
2022/07/22 09:18:49;;;;;;;5.00;1.17;;;20.50;99.90;;;;;;5109061;28;20061;-68
2022/07/22 09:21:15;;;;;;;5.43;1.27;;;20.60;99.90;;;;;;5108442;28;20035;-68
2022/07/22 09:23:41;;;;;;;3.60;1.08;;;20.60;99.90;;;;;;5106053;28;20974;-68
2022/07/22 09:26:07;;;;;;;5.35;1.10;;;20.70;99.70;;;;;;5109090;28;20140;-68
2022/07/22 09:28:33;;;;;;;7.57;1.30;;;20.70;99.50;;;;;;5108732;28;20047;-68
2022/07/22 09:30:59;;;;;;;6.82;1.40;;;20.70;99.40;;;;;;5106549;28;20067;-68
2022/07/22 09:33:25;;;;;;;1.92;0.70;;;20.70;99.40;;;;;;5101062;28;20063;-68
2022/07/22 09:35:54;;;;;;;3.08;1.00;;;20.80;99.10;;;;;;5104235;28;20059;-68
2022/07/22 09:38:28;;;;;;;4.90;1.10;;;20.80;98.20;;;;;;5107744;28;20092;-68
2022/07/22 09:40:54;;;;;;;;;;;21.10;98.10;;;;;;5105911;28;20043;-68
2022/07/22 09:43:20;;;;;;;2.17;1.00;;;21.30;98.30;;;;;;5111346;28;20314;-68
2022/07/22 09:45:57;;;;;;;5.78;1.25;;;21.50;98.00;;;;;;5109137;28;20180;-68
2022/07/22 09:48:23;;;;;;;4.30;0.80;;;21.70;97.50;;;;;;5102942;28;20052;-66
2022/07/22 09:50:50;;;;;;;2.80;0.88;;;21.90;97.30;;;;;;5105651;28;20451;-67
2022/07/22 09:53:17;;;;;;;3.08;0.95;;;22.10;96.70;;;;;;5088617;28;20043;-66
2022/07/22 09:55:43;;;;;;;5.55;1.23;;;22.40;96.20;;;;;;5105387;28;20051;-67
2022/07/22 09:58:09;;;;;;;5.00;1.00;;;22.50;95.50;;;;;;5105525;28;20091;-67
2022/07/22 10:00:36;;;;;;;4.40;1.00;;;22.60;95.10;;;;;;5107466;28;20180;-66
2022/07/22 10:03:05;;;;;;;2.45;0.90;;;22.60;94.70;;;;;;5106950;28;20050;-67
2022/07/22 10:05:33;;;;;;;2.58;0.90;;;22.60;95.00;;;;;;5106484;28;20042;-66
2022/07/22 10:08:01;;;;;;;5.90;1.13;;;22.60;95.00;;;;;;5107921;28;20066;-66
2022/07/22 10:10:28;;;;;;;4.82;1.08;;;22.70;95.00;;;;;;5109352;28;20371;-66
2022/07/22 10:12:56;;;;;;;4.57;1.00;;;22.50;94.70;;;;;;5106119;28;20381;-66
2022/07/22 10:15:23;;;;;;;3.67;1.00;;;22.60;94.90;;;;;;5107663;28;20097;-66
2022/07/22 10:17:52;;;;;;;4.88;1.17;;;22.50;94.10;;;;;;5102141;28;21748;-66
2022/07/22 10:20:22;;;;;;;4.10;1.15;;;22.60;94.20;;;;;;5108072;28;20099;-66
2022/07/22 10:22:54;;;;;;;4.93;1.33;;;22.50;93.90;;;;;;5107908;28;20078;-66
2022/07/22 10:25:23;;;;;;;4.15;1.00;;;22.50;94.10;;;;;;5109666;28;20040;-66
2022/07/22 10:27:53;;;;;;;4.50;1.10;;;22.40;94.30;;;;;;5110780;28;20044;-66
2022/07/22 10:30:21;;;;;;;3.95;1.20;;;22.50;94.70;;;;;;5110192;28;20047;-66
2022/07/22 10:33:04;;;;;;;4.63;1.13;;;22.60;94.10;;;;;;5102398;28;20078;-66
2022/07/22 10:35:30;;;;;;;4.65;1.10;;;22.40;94.60;;;;;;5109490;28;20147;-65
2022/07/22 10:37:59;;;;;;;3.80;1.10;;;22.30;94.40;;;;;;5111248;28;20056;-66
2022/07/22 10:40:31;;;;;;;4.45;1.00;;;22.30;94.30;;;;;;5111373;28;20128;-66
2022/07/22 10:43:00;;;;;;;3.85;1.30;;;22.10;94.20;;;;;;5108955;28;20041;-66
2022/07/22 10:45:45;;;;;;;5.57;1.63;;;22.10;94.60;;;;;;5110708;28;20070;-65
2022/07/22 10:48:23;;;;;;;5.05;1.40;;;22.10;94.60;;;;;;5109950;28;20039;-65
2022/07/22 10:50:51;;;;;;;4.80;1.05;;;22.20;94.70;;;;;;5108454;28;20092;-66
2022/07/22 10:53:22;;;;;;;5.03;1.25;;;22.10;94.80;;;;;;5107175;28;20093;-66
2022/07/22 10:56:15;;;;;;;4.85;1.27;;;22.00;94.70;;;;;;5105590;28;20044;-66
2022/07/22 10:58:52;;;;;;;6.07;1.20;;;22.00;94.50;;;;;;5105636;28;20101;-65
2022/07/22 11:01:22;;;;;;;4.70;1.30;;;22.00;94.80;;;;;;5105055;28;20471;-65
2022/07/22 11:03:49;;;;;;;5.15;1.40;;;22.10;94.80;;;;;;5110073;28;20162;-65
2022/07/22 11:06:20;;;;;;;4.18;1.08;;;22.00;94.40;;;;;;5109275;28;20114;-65
2022/07/22 11:08:47;;;;;;;4.70;1.10;;;22.00;94.30;;;;;;5111533;28;20619;-64
2022/07/22 11:11:13;;;;;;;4.25;1.30;;;22.00;94.30;;;;;;5106054;28;20101;-64
2022/07/22 11:13:40;;;;;;;3.80;1.00;;;22.00;94.70;;;;;;5106103;28;20047;-65
2022/07/22 11:16:24;;;;;;;3.58;1.10;;;22.10;94.90;;;;;;5108473;27;20106;-65
2022/07/22 11:18:54;;;;;;;5.03;1.30;;;21.90;94.90;;;;;;5110033;27;20044;-67
2022/07/22 11:21:23;;;;;;;3.15;1.05;;;21.90;94.80;;;;;;5109383;28;20040;-67
2022/07/22 11:23:50;;;;;;;4.82;1.48;;;21.90;95.00;;;;;;5105449;28;20423;-65
2022/07/22 11:26:20;;;;;;;5.63;1.40;;;21.80;95.20;;;;;;5111167;27;20044;-66
2022/07/22 11:28:45;;;;;;;4.40;1.50;;;21.90;95.60;;;;;;5110465;27;20055;-65
2022/07/22 11:31:15;;;;;;;6.22;1.50;;;21.80;95.60;;;;;;5110052;28;20042;-65
2022/07/22 11:33:41;;;;;;;4.07;1.15;;;21.80;95.60;;;;;;5109945;28;20523;-65
2022/07/22 11:36:11;;;;;;;4.72;1.30;;;21.90;95.40;;;;;;5105187;28;20048;-65
2022/07/22 11:38:47;;;;;;;4.50;1.35;;;22.10;95.30;;;;;;5099774;28;20066;-65
2022/07/22 11:41:14;;;;;;;5.43;1.10;;;22.20;95.10;;;;;;5111123;27;20081;-65
2022/07/22 11:43:41;;;;;;;4.13;1.30;;;22.20;95.00;;;;;;5108835;28;20123;-66
2022/07/22 11:46:07;;;;;;;5.45;1.20;;;22.10;94.90;;;;;;5109943;28;20043;-66
2022/07/22 11:48:34;;;;;;;5.82;1.13;;;22.30;94.90;;;;;;5110283;28;20397;-65
2022/07/22 11:51:02;;;;;;;3.90;1.20;;;22.10;94.70;;;;;;5107407;28;20084;-65
2022/07/22 11:53:27;;;;;;;3.50;1.17;;;22.00;94.60;;;;;;5112020;28;20366;-65
2022/07/22 11:55:58;;;;;;;3.58;1.10;;;22.00;95.20;;;;;;5111726;28;20063;-66
2022/07/22 11:58:43;;;;;;;4.57;1.45;;;21.90;95.20;;;;;;5100060;28;20040;-64
2022/07/22 12:01:14;;;;;;;4.25;1.20;;;22.00;95.00;;;;;;5101590;28;20040;-65
2022/07/22 12:03:45;;;;;;;4.32;1.30;;;22.00;95.00;;;;;;5109894;28;20044;-64
2022/07/22 12:06:12;;;;;;;4.65;1.10;;;22.30;95.00;;;;;;5105678;28;20347;-64
2022/07/22 12:08:44;;;;;;;5.28;1.13;;;22.50;94.80;;;;;;5111682;28;20043;-64
2022/07/22 12:11:11;;;;;;;5.72;1.23;;;22.70;94.10;;;;;;5110400;28;20445;-64
2022/07/22 12:13:42;;;;;;;4.25;0.90;;;22.70;93.70;;;;;;5110184;28;20553;-65
2022/07/22 12:16:18;;;;;;;6.53;1.08;;;22.90;93.60;;;;;;5110189;28;20050;-65
2022/07/22 12:18:44;;;;;;;4.60;1.20;;;22.80;93.10;;;;;;5110076;28;20147;-65
2022/07/22 12:21:09;;;;;;;3.60;0.90;;;22.90;93.00;;;;;;5110434;28;20100;-65
2022/07/22 12:23:35;;;;;;;4.97;1.00;;;23.00;93.20;;;;;;5111133;28;20132;-65
2022/07/22 12:26:01;;;;;;;6.45;1.13;;;23.10;93.00;;;;;;5108465;28;20214;-66
2022/07/22 12:28:28;;;;;;;3.22;1.00;;;23.20;92.90;;;;;;5111246;28;20067;-66
2022/07/22 12:30:55;;;;;;;6.90;1.27;;;23.10;93.00;;;;;;5110417;28;20047;-65
2022/07/22 12:33:22;;;;;;;2.58;1.00;;;23.20;92.50;;;;;;5109920;28;20062;-65
2022/07/22 12:36:03;;;;;;;4.38;1.08;;;23.20;92.70;;;;;;5110371;28;20036;-66
2022/07/22 12:38:29;;;;;;;3.35;1.10;;;23.30;92.40;;;;;;5111194;28;20035;-65
2022/07/22 12:40:55;;;;;;;2.25;0.93;;;23.30;92.40;;;;;;5108283;28;20449;-66
2022/07/22 12:43:25;;;;;;;3.92;1.10;;;23.40;92.40;;;;;;5110946;28;20048;-65